createdAt,value
2022-12-27T00:00:35.392Z,37.06
2022-12-27T00:01:35.335Z,37.06
2022-12-27T00:02:35.368Z,37.22
2022-12-27T00:03:35.303Z,37.22
2022-12-27T00:04:35.277Z,37.22
2022-12-27T00:05:35.272Z,37.38
2022-12-27T00:06:35.286Z,37.06
2022-12-27T00:07:35.251Z,37.54
2022-12-27T00:08:35.655Z,36.90
2022-12-27T00:09:35.229Z,37.38
2022-12-27T00:10:35.228Z,36.25
2022-12-27T00:11:35.212Z,37.38
2022-12-27T00:12:35.199Z,37.22
2022-12-27T00:13:35.987Z,37.22
2022-12-27T00:14:35.177Z,37.87
2022-12-27T00:15:35.586Z,37.22
2022-12-27T00:16:35.245Z,37.22
2022-12-27T00:17:35.151Z,36.90
2022-12-27T00:18:35.142Z,37.06
2022-12-27T00:19:35.143Z,37.06
2022-12-27T00:20:35.127Z,37.06
2022-12-27T00:21:35.130Z,37.22
2022-12-27T00:22:35.099Z,36.90
2022-12-27T00:23:35.116Z,37.06
2022-12-27T00:24:35.950Z,37.22
2022-12-27T00:25:35.072Z,37.22
2022-12-27T00:26:35.062Z,37.22
2022-12-27T00:27:35.056Z,36.90
2022-12-27T00:28:35.039Z,37.22
2022-12-27T00:29:35.035Z,37.06
2022-12-27T00:30:35.016Z,37.06
2022-12-27T00:31:35.057Z,37.06
2022-12-27T00:32:34.994Z,37.06
2022-12-27T00:33:35.023Z,37.22
2022-12-27T00:34:34.979Z,37.06
2022-12-27T00:35:34.971Z,37.22
2022-12-27T00:36:35.375Z,36.74
2022-12-27T00:37:34.955Z,37.06
2022-12-27T00:38:34.940Z,36.90
2022-12-27T00:39:34.938Z,37.22
2022-12-27T00:40:34.945Z,37.22
2022-12-27T00:41:35.352Z,37.54
2022-12-27T00:42:34.962Z,36.90
2022-12-27T00:43:34.985Z,36.90
2022-12-27T00:44:34.932Z,38.67
2022-12-27T00:45:34.939Z,37.22
2022-12-27T00:46:34.871Z,37.22
2022-12-27T00:47:34.948Z,37.06
2022-12-27T00:48:34.854Z,37.22
2022-12-27T00:49:34.874Z,37.38
2022-12-27T00:50:34.823Z,36.90
2022-12-27T00:51:35.198Z,37.06
2022-12-27T00:52:34.809Z,37.22
2022-12-27T00:53:34.799Z,37.22
2022-12-27T00:54:34.780Z,37.38
2022-12-27T00:55:34.809Z,37.22
2022-12-27T00:56:35.367Z,39.80
2022-12-27T00:57:34.754Z,37.38
2022-12-27T00:58:38.491Z,37.38
2022-12-27T00:59:34.755Z,37.22
2022-12-27T01:00:34.739Z,36.42
2022-12-27T01:01:34.969Z,37.22
2022-12-27T01:02:34.716Z,37.06
2022-12-27T01:03:35.607Z,37.38
2022-12-27T01:04:34.684Z,37.22
2022-12-27T01:05:34.673Z,40.28
2022-12-27T01:06:34.675Z,37.06
2022-12-27T01:07:34.655Z,37.38
2022-12-27T01:08:34.643Z,37.71
2022-12-27T01:09:34.647Z,37.22
2022-12-27T01:10:34.626Z,37.54
2022-12-27T01:11:34.636Z,37.38
2022-12-27T01:12:34.601Z,37.38
2022-12-27T01:13:34.594Z,37.54
2022-12-27T01:14:35.334Z,37.54
2022-12-27T01:15:34.577Z,37.38
2022-12-27T01:16:34.621Z,36.90
2022-12-27T01:17:34.938Z,37.38
2022-12-27T01:18:34.542Z,37.54
2022-12-27T01:19:34.541Z,37.22
2022-12-27T01:20:34.880Z,37.06
2022-12-27T01:21:34.523Z,37.38
2022-12-27T01:22:34.504Z,37.38
2022-12-27T01:23:34.493Z,37.38
2022-12-27T01:24:35.267Z,37.06
2022-12-27T01:25:34.478Z,37.22
2022-12-27T01:26:34.464Z,37.06
2022-12-27T01:27:34.836Z,36.90
2022-12-27T01:28:34.450Z,36.74
2022-12-27T01:29:34.438Z,37.22
2022-12-27T01:30:34.423Z,37.06
2022-12-27T01:31:34.706Z,37.06
2022-12-27T01:32:34.406Z,37.06
2022-12-27T01:33:34.398Z,37.22
2022-12-27T01:34:35.006Z,37.06
2022-12-27T01:35:34.379Z,37.22
2022-12-27T01:36:34.360Z,38.51
2022-12-27T01:37:34.596Z,37.22
2022-12-27T01:38:34.345Z,37.22
2022-12-27T01:39:34.342Z,36.90
2022-12-27T01:40:34.358Z,35.61
2022-12-27T01:41:34.318Z,36.90
2022-12-27T01:42:35.045Z,36.90
2022-12-27T01:43:34.303Z,37.22
2022-12-27T01:44:35.229Z,37.06
2022-12-27T01:45:34.357Z,40.12
2022-12-27T01:46:34.728Z,37.54
2022-12-27T01:47:34.652Z,37.54
2022-12-27T01:48:34.242Z,37.38
2022-12-27T01:49:34.241Z,37.71
2022-12-27T01:50:34.244Z,37.22
2022-12-27T01:51:34.215Z,37.22
2022-12-27T01:52:35.161Z,37.54
2022-12-27T01:53:34.996Z,37.54
2022-12-27T01:54:34.599Z,37.38
2022-12-27T01:55:34.175Z,37.54
2022-12-27T01:56:34.167Z,37.22
2022-12-27T01:57:34.157Z,37.38
2022-12-27T01:58:34.144Z,36.90
2022-12-27T01:59:34.475Z,37.22
2022-12-27T02:00:34.130Z,37.22
2022-12-27T02:01:34.255Z,36.58
2022-12-27T02:02:34.162Z,36.90
2022-12-27T02:03:34.837Z,37.38
2022-12-27T02:04:34.084Z,37.54
2022-12-27T02:05:34.079Z,37.54
2022-12-27T02:06:34.069Z,37.38
2022-12-27T02:07:34.058Z,37.38
2022-12-27T02:08:34.045Z,37.54
2022-12-27T02:09:34.317Z,37.38
2022-12-27T02:10:34.026Z,37.54
2022-12-27T02:11:34.026Z,36.90
2022-12-27T02:12:34.007Z,37.54
2022-12-27T02:13:34.017Z,37.71
2022-12-27T02:14:34.486Z,37.38
2022-12-27T02:15:33.978Z,37.54
2022-12-27T02:16:33.983Z,37.38
2022-12-27T02:17:34.399Z,37.38
2022-12-27T02:18:33.955Z,37.54
2022-12-27T02:19:33.936Z,37.38
2022-12-27T02:20:33.928Z,37.22
2022-12-27T02:21:34.305Z,37.54
2022-12-27T02:22:33.904Z,37.38
2022-12-27T02:23:39.351Z,37.54
2022-12-27T02:24:34.684Z,37.87
2022-12-27T02:25:33.892Z,37.54
2022-12-27T02:26:33.902Z,37.54
2022-12-27T02:27:33.877Z,37.38
2022-12-27T02:28:34.260Z,37.38
2022-12-27T02:29:33.849Z,37.22
2022-12-27T02:30:33.863Z,36.90
2022-12-27T02:31:33.815Z,37.38
2022-12-27T02:32:33.840Z,37.38
2022-12-27T02:33:34.535Z,37.06
2022-12-27T02:34:33.787Z,37.38
2022-12-27T02:35:33.789Z,37.22
2022-12-27T02:36:33.776Z,37.38
2022-12-27T02:37:34.230Z,37.22
2022-12-27T02:38:33.745Z,37.22
2022-12-27T02:39:33.742Z,36.90
2022-12-27T02:40:33.743Z,37.22
2022-12-27T02:41:33.719Z,37.22
2022-12-27T02:42:33.706Z,37.54
2022-12-27T02:43:33.695Z,37.22
2022-12-27T02:44:33.689Z,37.38
2022-12-27T02:45:33.680Z,37.38
2022-12-27T02:46:34.054Z,37.38
2022-12-27T02:47:34.050Z,37.06
2022-12-27T02:48:33.659Z,37.54
2022-12-27T02:49:33.646Z,37.38
2022-12-27T02:50:33.630Z,37.22
2022-12-27T02:51:33.618Z,37.38
2022-12-27T02:52:33.604Z,37.54
2022-12-27T02:53:34.384Z,37.71
2022-12-27T02:54:33.584Z,37.06
2022-12-27T02:55:33.576Z,37.54
2022-12-27T02:56:33.567Z,37.38
2022-12-27T02:57:33.558Z,37.54
2022-12-27T02:58:33.973Z,37.06
2022-12-27T02:59:33.543Z,37.54
2022-12-27T03:00:33.520Z,37.22
2022-12-27T03:01:33.630Z,37.54
2022-12-27T03:02:33.596Z,39.16
2022-12-27T03:03:33.507Z,37.06
2022-12-27T03:04:33.950Z,37.54
2022-12-27T03:05:33.488Z,37.87
2022-12-27T03:06:33.468Z,37.54
2022-12-27T03:07:33.463Z,37.06
2022-12-27T03:08:33.438Z,37.54
2022-12-27T03:09:33.439Z,37.71
2022-12-27T03:10:33.433Z,37.71
2022-12-27T03:11:33.419Z,37.87
2022-12-27T03:12:33.426Z,37.71
2022-12-27T03:13:33.822Z,37.54
2022-12-27T03:14:33.386Z,37.54
2022-12-27T03:15:33.634Z,37.38
2022-12-27T03:16:33.364Z,37.54
2022-12-27T03:17:33.356Z,37.87
2022-12-27T03:18:33.340Z,38.03
2022-12-27T03:19:33.350Z,37.06
2022-12-27T03:20:33.319Z,37.71
2022-12-27T03:21:33.320Z,37.38
2022-12-27T03:22:33.299Z,37.38
2022-12-27T03:23:33.916Z,37.38
2022-12-27T03:24:33.280Z,37.71
2022-12-27T03:25:33.278Z,37.54
2022-12-27T03:26:33.259Z,37.38
2022-12-27T03:27:33.250Z,37.71
2022-12-27T03:28:33.583Z,37.38
2022-12-27T03:29:33.676Z,37.54
2022-12-27T03:30:33.220Z,37.71
2022-12-27T03:31:33.217Z,37.71
2022-12-27T03:32:33.196Z,38.03
2022-12-27T03:33:33.192Z,37.54
2022-12-27T03:34:34.051Z,37.71
2022-12-27T03:35:33.951Z,37.54
2022-12-27T03:36:33.170Z,37.54
2022-12-27T03:37:33.152Z,37.71
2022-12-27T03:38:33.136Z,37.87
2022-12-27T03:39:33.129Z,37.87
2022-12-27T03:40:33.589Z,37.38
2022-12-27T03:41:33.451Z,37.22
2022-12-27T03:42:33.099Z,37.22
2022-12-27T03:43:33.083Z,37.87
2022-12-27T03:44:33.084Z,38.03
2022-12-27T03:45:33.063Z,37.38
2022-12-27T03:46:33.881Z,37.71
2022-12-27T03:47:33.045Z,38.19
2022-12-27T03:48:33.043Z,37.87
2022-12-27T03:49:33.029Z,37.38
2022-12-27T03:50:33.023Z,37.87
2022-12-27T03:51:33.402Z,37.38
2022-12-27T03:52:33.000Z,38.03
2022-12-27T03:53:32.986Z,37.71
2022-12-27T03:54:32.980Z,40.61
2022-12-27T03:55:33.611Z,37.87
2022-12-27T03:56:33.349Z,37.71
2022-12-27T03:57:33.335Z,37.87
2022-12-27T03:58:32.938Z,37.38
2022-12-27T03:59:32.926Z,37.54
2022-12-27T04:00:32.917Z,37.71
2022-12-27T04:01:32.986Z,37.38
2022-12-27T04:02:33.615Z,37.38
2022-12-27T04:03:32.940Z,37.71
2022-12-27T04:04:32.888Z,37.54
2022-12-27T04:05:33.661Z,37.71
2022-12-27T04:06:32.864Z,37.71
2022-12-27T04:07:32.846Z,37.38
2022-12-27T04:08:32.838Z,37.54
2022-12-27T04:09:32.828Z,38.03
2022-12-27T04:10:33.180Z,37.71
2022-12-27T04:11:32.844Z,37.87
2022-12-27T04:12:32.815Z,37.87
2022-12-27T04:13:32.800Z,37.38
2022-12-27T04:14:32.779Z,37.71
2022-12-27T04:15:32.760Z,37.87
2022-12-27T04:16:32.756Z,37.38
2022-12-27T04:17:32.746Z,37.38
2022-12-27T04:18:32.739Z,37.54
2022-12-27T04:19:32.726Z,37.54
2022-12-27T04:20:33.484Z,37.54
2022-12-27T04:21:32.701Z,37.38
2022-12-27T04:22:32.693Z,37.54
2022-12-27T04:23:32.690Z,37.71
2022-12-27T04:24:32.682Z,37.87
2022-12-27T04:25:33.357Z,37.71
2022-12-27T04:26:33.130Z,37.38
2022-12-27T04:27:32.644Z,37.38
2022-12-27T04:28:32.634Z,36.90
2022-12-27T04:29:32.623Z,37.71
2022-12-27T04:30:32.615Z,37.71
2022-12-27T04:31:32.646Z,37.87
2022-12-27T04:32:32.621Z,38.19
2022-12-27T04:33:33.045Z,37.71
2022-12-27T04:34:32.574Z,37.87
2022-12-27T04:35:32.580Z,37.87
2022-12-27T04:36:32.556Z,38.51
2022-12-27T04:37:32.537Z,37.71
2022-12-27T04:38:32.539Z,38.03
2022-12-27T04:39:32.540Z,37.71
2022-12-27T04:40:32.513Z,37.87
2022-12-27T04:41:32.503Z,38.19
2022-12-27T04:42:32.907Z,37.87
2022-12-27T04:43:32.485Z,38.19
2022-12-27T04:44:32.473Z,38.03
2022-12-27T04:45:32.463Z,38.19
2022-12-27T04:46:32.471Z,38.83
2022-12-27T04:47:32.462Z,37.54
2022-12-27T04:48:32.436Z,38.03
2022-12-27T04:49:32.807Z,38.19
2022-12-27T04:50:32.417Z,38.03
2022-12-27T04:51:32.399Z,38.19
2022-12-27T04:52:32.404Z,38.51
2022-12-27T04:53:32.797Z,38.51
2022-12-27T04:54:32.373Z,37.87
2022-12-27T04:55:32.357Z,38.03
2022-12-27T04:56:32.362Z,37.87
2022-12-27T04:57:32.339Z,38.51
2022-12-27T04:58:32.751Z,38.03
2022-12-27T04:59:32.328Z,36.74
2022-12-27T05:00:32.764Z,41.09
2022-12-27T05:01:32.401Z,38.19
2022-12-27T05:02:32.497Z,37.87
2022-12-27T05:03:32.327Z,38.19
2022-12-27T05:04:32.987Z,38.19
2022-12-27T05:05:32.257Z,37.54
2022-12-27T05:06:32.276Z,38.19
2022-12-27T05:07:32.326Z,39.64
2022-12-27T05:08:32.232Z,37.87
2022-12-27T05:09:32.223Z,38.19
2022-12-27T05:10:32.217Z,37.87
2022-12-27T05:11:32.212Z,38.19
2022-12-27T05:12:32.199Z,38.03
2022-12-27T05:13:32.174Z,38.51
2022-12-27T05:14:32.172Z,38.99
2022-12-27T05:15:32.154Z,38.35
2022-12-27T05:16:32.184Z,38.19
2022-12-27T05:17:32.141Z,38.51
2022-12-27T05:18:32.442Z,38.03
2022-12-27T05:19:32.552Z,38.19
2022-12-27T05:20:32.110Z,40.12
2022-12-27T05:21:32.099Z,39.64
2022-12-27T05:22:32.099Z,38.51
2022-12-27T05:23:32.479Z,37.87
2022-12-27T05:24:32.857Z,38.99
2022-12-27T05:25:33.179Z,38.51
2022-12-27T05:26:32.055Z,38.51
2022-12-27T05:27:32.036Z,37.06
2022-12-27T05:28:32.042Z,38.51
2022-12-27T05:29:32.349Z,38.19
2022-12-27T05:30:32.013Z,38.03
2022-12-27T05:31:32.150Z,38.19
2022-12-27T05:32:32.373Z,38.35
2022-12-27T05:33:31.987Z,38.35
2022-12-27T05:34:31.989Z,39.32
2022-12-27T05:35:31.970Z,38.51
2022-12-27T05:36:32.304Z,38.51
2022-12-27T05:37:31.937Z,40.61
2022-12-27T05:38:31.935Z,38.35
2022-12-27T05:39:32.419Z,38.03
2022-12-27T05:40:31.921Z,38.51
2022-12-27T05:41:31.895Z,38.35
2022-12-27T05:42:31.905Z,38.51
2022-12-27T05:43:31.878Z,40.12
2022-12-27T05:44:32.697Z,38.67
2022-12-27T05:45:31.865Z,38.67
2022-12-27T05:46:32.575Z,38.51
2022-12-27T05:47:31.839Z,38.19
2022-12-27T05:48:32.164Z,38.99
2022-12-27T05:49:31.852Z,38.19
2022-12-27T05:50:31.815Z,38.51
2022-12-27T05:51:32.522Z,38.51
2022-12-27T05:52:36.181Z,38.35
2022-12-27T05:53:31.796Z,38.03
2022-12-27T05:54:31.770Z,38.83
2022-12-27T05:55:31.759Z,38.67
2022-12-27T05:56:32.701Z,38.35
2022-12-27T05:57:31.743Z,38.51
2022-12-27T05:58:31.735Z,38.35
2022-12-27T05:59:31.726Z,38.99
2022-12-27T06:00:32.129Z,38.67
2022-12-27T06:01:31.795Z,38.99
2022-12-27T06:02:31.852Z,38.51
2022-12-27T06:03:31.747Z,38.51
2022-12-27T06:04:31.677Z,38.83
2022-12-27T06:05:32.430Z,37.38
2022-12-27T06:06:31.667Z,38.67
2022-12-27T06:07:31.647Z,38.83
2022-12-27T06:08:31.631Z,38.35
2022-12-27T06:09:31.621Z,37.06
2022-12-27T06:10:31.975Z,38.51
2022-12-27T06:11:31.611Z,38.19
2022-12-27T06:12:31.592Z,38.03
2022-12-27T06:13:31.584Z,39.64
2022-12-27T06:14:31.572Z,37.71
2022-12-27T06:15:31.558Z,37.71
2022-12-27T06:16:31.589Z,38.03
2022-12-27T06:17:31.542Z,37.87
2022-12-27T06:18:31.538Z,38.03
2022-12-27T06:19:31.523Z,36.90
2022-12-27T06:20:31.517Z,37.71
2022-12-27T06:21:32.283Z,37.71
2022-12-27T06:22:31.503Z,38.03
2022-12-27T06:23:31.489Z,37.71
2022-12-27T06:24:31.472Z,37.71
2022-12-27T06:25:31.462Z,37.38
2022-12-27T06:26:32.452Z,37.54
2022-12-27T06:27:31.441Z,37.38
2022-12-27T06:28:31.817Z,37.22
2022-12-27T06:29:31.455Z,37.38
2022-12-27T06:30:35.960Z,37.71
2022-12-27T06:31:31.785Z,38.51
2022-12-27T06:32:31.397Z,37.71
2022-12-27T06:33:31.383Z,38.03
2022-12-27T06:34:31.369Z,37.22
2022-12-27T06:35:31.360Z,37.54
2022-12-27T06:36:31.357Z,37.54
2022-12-27T06:37:31.669Z,37.71
2022-12-27T06:38:31.846Z,41.73
2022-12-27T06:39:31.321Z,37.71
2022-12-27T06:40:31.311Z,37.54
2022-12-27T06:41:31.317Z,39.32
2022-12-27T06:42:31.825Z,38.51
2022-12-27T06:43:31.706Z,38.19
2022-12-27T06:44:31.235Z,37.87
2022-12-27T06:45:31.257Z,38.03
2022-12-27T06:46:31.201Z,38.03
2022-12-27T06:47:31.243Z,37.71
2022-12-27T06:48:31.477Z,37.71
2022-12-27T06:49:31.755Z,38.03
2022-12-27T06:50:31.161Z,37.87
2022-12-27T06:51:31.926Z,37.87
2022-12-27T06:52:31.189Z,38.03
2022-12-27T06:53:31.135Z,38.99
2022-12-27T06:54:31.118Z,37.71
2022-12-27T06:55:31.104Z,41.73
2022-12-27T06:56:31.898Z,38.03
2022-12-27T06:57:31.086Z,38.03
2022-12-27T06:58:31.085Z,37.54
2022-12-27T06:59:31.071Z,37.71
2022-12-27T07:00:31.461Z,37.38
2022-12-27T07:01:31.172Z,38.03
2022-12-27T07:02:31.530Z,38.03
2022-12-27T07:03:31.020Z,37.87
2022-12-27T07:04:31.017Z,37.87
2022-12-27T07:05:31.004Z,37.87
2022-12-27T07:06:31.006Z,38.35
2022-12-27T07:07:31.438Z,38.03
2022-12-27T07:08:30.978Z,38.67
2022-12-27T07:09:30.961Z,37.71
2022-12-27T07:10:31.268Z,44.96
2022-12-27T07:11:31.322Z,37.71
2022-12-27T07:12:36.438Z,38.03
2022-12-27T07:13:30.929Z,37.71
2022-12-27T07:14:31.331Z,37.54
2022-12-27T07:15:30.911Z,38.03
2022-12-27T07:16:30.938Z,37.87
2022-12-27T07:17:30.888Z,37.38
2022-12-27T07:18:30.880Z,37.38
2022-12-27T07:19:31.318Z,37.71
2022-12-27T07:20:30.864Z,38.51
2022-12-27T07:21:30.848Z,37.38
2022-12-27T07:22:30.835Z,38.03
2022-12-27T07:23:30.841Z,37.71
2022-12-27T07:24:31.202Z,37.87
2022-12-27T07:25:30.803Z,38.03
2022-12-27T07:26:30.882Z,39.48
2022-12-27T07:27:30.782Z,39.48
2022-12-27T07:28:30.783Z,37.54
2022-12-27T07:29:31.264Z,38.51
2022-12-27T07:30:30.752Z,37.54
2022-12-27T07:31:30.808Z,37.71
2022-12-27T07:32:30.772Z,37.71
2022-12-27T07:33:30.718Z,37.54
2022-12-27T07:34:30.719Z,38.51
2022-12-27T07:35:30.700Z,38.35
2022-12-27T07:36:31.449Z,38.03
2022-12-27T07:37:30.676Z,37.71
2022-12-27T07:38:30.675Z,37.71
2022-12-27T07:39:31.079Z,38.51
2022-12-27T07:40:30.686Z,38.51
2022-12-27T07:41:30.645Z,38.03
2022-12-27T07:42:30.649Z,37.87
2022-12-27T07:43:30.639Z,37.71
2022-12-27T07:44:31.010Z,37.38
2022-12-27T07:45:30.628Z,37.71
2022-12-27T07:46:30.605Z,37.71
2022-12-27T07:47:30.582Z,38.03
2022-12-27T07:48:31.024Z,38.51
2022-12-27T07:49:30.561Z,37.38
2022-12-27T07:50:30.560Z,39.96
2022-12-27T07:51:30.546Z,37.54
2022-12-27T07:52:30.924Z,37.87
2022-12-27T07:53:30.964Z,38.19
2022-12-27T07:54:30.518Z,37.71
2022-12-27T07:55:30.516Z,38.67
2022-12-27T07:56:30.496Z,37.54
2022-12-27T07:57:30.505Z,38.19
2022-12-27T07:58:30.854Z,37.87
2022-12-27T07:59:30.468Z,38.19
2022-12-27T08:00:30.446Z,37.87
2022-12-27T08:01:30.569Z,38.99
2022-12-27T08:02:30.501Z,37.71
2022-12-27T08:03:30.855Z,37.38
2022-12-27T08:04:30.860Z,37.22
2022-12-27T08:05:30.407Z,38.03
2022-12-27T08:06:30.390Z,37.87
2022-12-27T08:07:30.386Z,37.38
2022-12-27T08:08:30.375Z,36.90
2022-12-27T08:09:30.801Z,37.22
2022-12-27T08:10:30.353Z,37.22
2022-12-27T08:11:30.359Z,36.09
2022-12-27T08:12:30.338Z,36.58
2022-12-27T08:13:30.323Z,37.06
2022-12-27T08:14:30.321Z,36.74
2022-12-27T08:15:30.321Z,36.74
2022-12-27T08:16:30.367Z,36.74
2022-12-27T08:17:30.282Z,36.90
2022-12-27T08:18:30.271Z,36.74
2022-12-27T08:19:30.866Z,36.74
2022-12-27T08:20:30.251Z,37.38
2022-12-27T08:21:30.243Z,36.90
2022-12-27T08:22:30.231Z,37.54
2022-12-27T08:23:30.651Z,36.90
2022-12-27T08:24:30.207Z,36.90
2022-12-27T08:25:30.902Z,38.03
2022-12-27T08:26:30.195Z,36.90
2022-12-27T08:27:30.186Z,37.06
2022-12-27T08:28:30.170Z,37.54
2022-12-27T08:29:30.180Z,35.77
2022-12-27T08:30:30.677Z,36.90
2022-12-27T08:31:30.144Z,36.42
2022-12-27T08:32:30.750Z,36.42
2022-12-27T08:33:30.131Z,35.77
2022-12-27T08:34:30.116Z,36.09
2022-12-27T08:35:52.134Z,36.25
2022-12-27T08:36:54.538Z,36.09
2022-12-27T08:37:30.119Z,35.45
2022-12-27T08:38:30.072Z,36.42
2022-12-27T08:39:30.066Z,36.09
2022-12-27T08:40:30.048Z,36.42
2022-12-27T08:41:30.579Z,36.58
2022-12-27T08:42:30.028Z,37.22
2022-12-27T08:43:30.025Z,36.25
2022-12-27T08:44:30.404Z,36.42
2022-12-27T08:45:30.004Z,36.42
2022-12-27T08:46:30.011Z,39.48
2022-12-27T08:47:29.983Z,36.90
2022-12-27T08:48:30.034Z,37.71
2022-12-27T08:49:30.401Z,36.25
2022-12-27T08:50:29.971Z,36.42
2022-12-27T08:51:35.943Z,36.42
2022-12-27T08:52:30.316Z,36.58
2022-12-27T08:53:29.920Z,36.25
2022-12-27T08:54:30.407Z,36.09
2022-12-27T08:55:29.901Z,36.42
2022-12-27T08:56:29.892Z,35.93
2022-12-27T08:57:29.884Z,35.93
2022-12-27T08:58:29.866Z,36.09
2022-12-27T08:59:30.296Z,34.80
2022-12-27T09:00:30.238Z,35.29
2022-12-27T09:01:30.028Z,35.93
2022-12-27T09:02:29.953Z,36.09
2022-12-27T09:03:30.277Z,35.93
2022-12-27T09:04:30.238Z,35.77
2022-12-27T09:05:29.803Z,36.25
2022-12-27T09:06:29.788Z,36.09
2022-12-27T09:07:29.781Z,35.77
2022-12-27T09:08:29.774Z,35.77
2022-12-27T09:09:30.322Z,35.61
2022-12-27T09:10:29.761Z,35.61
2022-12-27T09:11:30.152Z,36.25
2022-12-27T09:12:29.730Z,35.61
2022-12-27T09:13:29.723Z,35.61
2022-12-27T09:14:29.704Z,35.61
2022-12-27T09:15:29.812Z,35.93
2022-12-27T09:16:29.696Z,36.09
2022-12-27T09:17:29.684Z,35.61
2022-12-27T09:18:29.666Z,37.06
2022-12-27T09:19:29.658Z,36.09
2022-12-27T09:20:30.472Z,36.09
2022-12-27T09:21:29.644Z,36.09
2022-12-27T09:22:29.651Z,35.61
2022-12-27T09:23:29.624Z,36.42
2022-12-27T09:24:29.625Z,35.93
2022-12-27T09:25:29.657Z,37.06
2022-12-27T09:26:29.595Z,35.77
2022-12-27T09:27:30.347Z,35.45
2022-12-27T09:28:29.575Z,35.45
2022-12-27T09:29:29.564Z,35.45
2022-12-27T09:30:29.546Z,35.13
2022-12-27T09:31:30.060Z,34.80
2022-12-27T09:32:29.531Z,34.64
2022-12-27T09:33:29.516Z,35.29
2022-12-27T09:34:29.931Z,34.97
2022-12-27T09:35:33.990Z,33.68
2022-12-27T09:36:29.495Z,34.64
2022-12-27T09:37:29.482Z,36.25
2022-12-27T09:38:29.469Z,34.64
2022-12-27T09:39:29.878Z,34.16
2022-12-27T09:40:29.878Z,34.16
2022-12-27T09:42:25.958Z,35.93
2022-12-27T09:43:09.484Z,34.00
2022-12-27T09:43:29.426Z,33.35
2022-12-27T09:44:29.416Z,33.84
2022-12-27T09:45:29.401Z,33.52
2022-12-27T09:46:29.859Z,33.84
2022-12-27T09:47:29.382Z,33.52
2022-12-27T09:48:33.305Z,33.52
2022-12-27T09:49:29.647Z,34.16
2022-12-27T09:50:29.345Z,33.03
2022-12-27T09:51:29.367Z,33.52
2022-12-27T09:52:29.957Z,33.68
2022-12-27T09:53:29.324Z,33.35
2022-12-27T09:54:29.310Z,33.84
2022-12-27T09:55:29.298Z,34.64
2022-12-27T09:56:47.430Z,33.52
2022-12-27T09:57:29.669Z,34.80
2022-12-27T09:58:29.269Z,34.00
2022-12-27T09:59:29.273Z,33.52
2022-12-27T10:00:34.874Z,33.68
2022-12-27T10:01:29.541Z,36.42
2022-12-27T10:02:29.349Z,33.52
2022-12-27T10:03:29.219Z,33.68
2022-12-27T10:04:45.527Z,33.52
2022-12-27T10:05:29.258Z,33.84
2022-12-27T10:06:29.188Z,34.48
2022-12-27T10:07:29.194Z,33.84
2022-12-27T10:08:29.165Z,33.84
2022-12-27T10:09:29.636Z,34.00
2022-12-27T10:10:29.151Z,35.29
2022-12-27T10:11:29.153Z,35.93
2022-12-27T10:12:31.785Z,34.16
2022-12-27T10:13:29.537Z,37.22
2022-12-27T10:14:29.491Z,35.93
2022-12-27T10:15:29.115Z,37.38
2022-12-27T10:16:29.114Z,34.80
2022-12-27T10:17:29.089Z,34.16
2022-12-27T10:18:29.066Z,33.84
2022-12-27T10:19:29.400Z,34.32
2022-12-27T10:20:29.937Z,34.48
2022-12-27T10:21:29.060Z,34.97
2022-12-27T10:22:29.020Z,34.64
2022-12-27T10:23:29.025Z,34.32
2022-12-27T10:24:29.541Z,34.48
2022-12-27T10:25:29.477Z,33.68
2022-12-27T10:26:28.990Z,33.84
2022-12-27T10:27:29.781Z,37.71
2022-12-27T10:28:28.991Z,35.13
2022-12-27T10:29:28.967Z,36.90
2022-12-27T10:30:28.941Z,34.48
2022-12-27T10:31:28.978Z,34.64
2022-12-27T10:32:28.942Z,34.32
2022-12-27T10:33:28.917Z,34.32
2022-12-27T10:34:29.309Z,34.64
2022-12-27T10:35:28.915Z,33.68
2022-12-27T10:36:28.896Z,33.84
2022-12-27T10:37:28.877Z,34.32
2022-12-27T10:38:28.864Z,35.45
2022-12-27T10:39:29.210Z,34.64
2022-12-27T10:40:34.221Z,34.32
2022-12-27T10:41:28.840Z,34.80
2022-12-27T10:42:28.826Z,34.32
2022-12-27T10:43:28.820Z,34.32
2022-12-27T10:44:28.795Z,34.16
2022-12-27T10:45:29.291Z,36.25
2022-12-27T10:46:32.813Z,34.64
2022-12-27T10:47:28.776Z,34.32
2022-12-27T10:48:36.349Z,34.00
2022-12-27T10:49:28.757Z,34.00
2022-12-27T10:50:29.429Z,34.32
2022-12-27T10:51:28.735Z,34.32
2022-12-27T10:52:28.720Z,34.64
2022-12-27T10:53:28.714Z,35.61
2022-12-27T10:54:28.714Z,34.64
2022-12-27T10:55:29.053Z,34.16
2022-12-27T10:56:29.577Z,37.22
2022-12-27T10:57:28.680Z,36.90
2022-12-27T10:58:28.658Z,35.45
2022-12-27T10:59:28.665Z,34.16
2022-12-27T11:00:28.692Z,34.00
2022-12-27T11:01:28.892Z,35.29
2022-12-27T11:02:28.763Z,34.80
2022-12-27T11:03:28.630Z,34.16
2022-12-27T11:04:28.600Z,33.84
2022-12-27T11:05:28.602Z,34.48
2022-12-27T11:06:29.441Z,34.16
2022-12-27T11:07:28.590Z,34.32
2022-12-27T11:08:28.554Z,34.00
2022-12-27T11:09:28.545Z,34.00
2022-12-27T11:10:28.530Z,34.16
2022-12-27T11:11:28.523Z,33.84
2022-12-27T11:12:29.012Z,37.87
2022-12-27T11:13:28.504Z,34.32
2022-12-27T11:14:28.905Z,34.48
2022-12-27T11:15:28.490Z,34.32
2022-12-27T11:16:28.502Z,34.64
2022-12-27T11:17:28.461Z,34.32
2022-12-27T11:18:28.882Z,34.97
2022-12-27T11:19:28.441Z,34.00
2022-12-27T11:20:28.438Z,37.06
2022-12-27T11:21:28.454Z,34.16
2022-12-27T11:22:28.404Z,34.48
2022-12-27T11:23:28.809Z,34.00
2022-12-27T11:24:28.383Z,33.84
2022-12-27T11:25:28.379Z,33.52
2022-12-27T11:26:29.143Z,34.64
2022-12-27T11:27:28.363Z,34.64
2022-12-27T11:28:28.754Z,33.35
2022-12-27T11:29:28.929Z,35.61
2022-12-27T11:30:28.333Z,33.35
2022-12-27T11:31:28.725Z,36.90
2022-12-27T11:32:28.333Z,34.80
2022-12-27T11:33:28.885Z,42.70
2022-12-27T11:34:28.284Z,34.64
2022-12-27T11:35:28.279Z,34.48
2022-12-27T11:36:28.269Z,34.80
2022-12-27T11:37:29.149Z,34.00
2022-12-27T11:38:28.578Z,34.00
2022-12-27T11:39:28.244Z,34.48
2022-12-27T11:40:28.227Z,33.84
2022-12-27T11:41:28.533Z,33.84
2022-12-27T11:42:28.209Z,34.00
2022-12-27T11:43:28.203Z,34.48
2022-12-27T11:44:28.196Z,34.32
2022-12-27T11:45:28.174Z,33.52
2022-12-27T11:46:28.919Z,33.84
2022-12-27T11:47:28.157Z,36.25
2022-12-27T11:48:28.139Z,38.51
2022-12-27T11:49:28.133Z,33.52
2022-12-27T11:50:28.965Z,33.84
2022-12-27T11:51:28.117Z,37.06
2022-12-27T11:52:28.093Z,33.84
2022-12-27T11:53:28.085Z,34.48
2022-12-27T11:54:28.079Z,34.00
2022-12-27T11:55:28.586Z,35.45
2022-12-27T11:56:28.468Z,34.16
2022-12-27T11:57:28.050Z,34.32
2022-12-27T11:58:28.035Z,33.03
2022-12-27T11:59:28.032Z,34.32
2022-12-27T12:00:28.021Z,34.00
2022-12-27T12:01:28.113Z,33.35
2022-12-27T12:02:28.030Z,33.84
2022-12-27T12:03:28.002Z,34.00
2022-12-27T12:04:28.366Z,33.68
2022-12-27T12:05:27.965Z,34.16
2022-12-27T12:06:32.861Z,34.32
2022-12-27T12:07:28.278Z,34.00
2022-12-27T12:08:27.943Z,33.84
2022-12-27T12:09:27.935Z,33.68
2022-12-27T12:10:27.923Z,33.84
2022-12-27T12:11:27.899Z,34.97
2022-12-27T12:12:27.924Z,34.16
2022-12-27T12:13:27.889Z,33.52
2022-12-27T12:14:27.872Z,38.83
2022-12-27T12:15:27.863Z,36.42
2022-12-27T12:16:27.896Z,34.32
2022-12-27T12:17:33.970Z,33.68
2022-12-27T12:18:27.838Z,34.64
2022-12-27T12:19:28.238Z,33.84
2022-12-27T12:20:28.590Z,33.35
2022-12-27T12:21:27.802Z,33.84
2022-12-27T12:22:27.792Z,34.00
2022-12-27T12:23:27.769Z,33.68
2022-12-27T12:24:27.770Z,33.19
2022-12-27T12:25:28.184Z,33.68
2022-12-27T12:26:27.757Z,39.16
2022-12-27T12:27:27.738Z,40.12
2022-12-27T12:28:56.296Z,33.84
2022-12-27T12:29:27.725Z,33.03
2022-12-27T12:30:28.417Z,33.52
2022-12-27T12:31:27.735Z,36.90
2022-12-27T12:32:27.699Z,34.32
2022-12-27T12:33:27.684Z,36.58
2022-12-27T12:34:27.674Z,34.16
2022-12-27T12:35:27.656Z,34.16
2022-12-27T12:36:27.657Z,34.32
2022-12-27T12:37:28.523Z,34.64
2022-12-27T12:38:27.629Z,33.84
2022-12-27T12:39:27.616Z,35.13
2022-12-27T12:40:27.620Z,41.09
2022-12-27T12:41:27.591Z,34.00
2022-12-27T12:42:27.931Z,34.00
2022-12-27T12:43:27.571Z,34.80
2022-12-27T12:44:27.568Z,36.09
2022-12-27T12:45:27.565Z,33.52
2022-12-27T12:46:27.647Z,33.68
2022-12-27T12:47:28.372Z,35.13
2022-12-27T12:48:27.521Z,33.68
2022-12-27T12:49:27.519Z,33.84
2022-12-27T12:50:27.507Z,34.48
2022-12-27T12:51:27.502Z,34.32
2022-12-27T12:52:27.486Z,34.16